LFST Airport Information

Runway Information
Runway 05 Length 7874 ft width 148 ft
Elevation 503 ft Threshold 0 ft Heading 49
Runway 23 Length 7874 ft Width 148 ft
Elevation 491 ft Threshold 0 ft Heading 229
Airport Frequencies
Type APP Name STRASBOURG Frequency 119.45 MHZ
Type ATIS Name STRASBOURG Frequency 126.925 MHZ
Type GND Name STRASBOURG Frequency 121.8 MHZ
Type TWR Name STRASBOURG Frequency 126.875 MHZ
Airport Navaids
Type VOR-DME Name Saverne Frequency 110450 KHZ
Type VOR-DME Name Strasbourg Frequency 115600 KHZ
Airport Weather Information & NOTAM
ADDS - METARS form results

(0935 UTC 04 July 2020)
Data provider http://aviationweather.gov/metar/data/
 
METAR text: LFST 040930Z AUTO 22005KT 130V250 9999 FEW056 23/12 Q1021 NOSIG
Conditions at: LFST (STRASBOURG/ENTZH, FR) observed 0930 UTC 04 July 2020
Temperature: 23.0°C (73°F)
Dewpoint: 12.0°C (54°F) [RH = 50%]
Pressure (altimeter): 30.15 inches Hg (1021.0 mb)
Winds: from the SW (220 degrees) at 6 MPH (5 knots; 2.6 m/s)
Visibility: 6 or more miles (10+ km)
Ceiling: at least 12,000 feet AGL
Clouds: few clouds at 5600 feet AGL
Weather: no significant weather observed at this time

METAR text: LFST 040900Z AUTO 20005KT 150V300 9999 FEW047 23/14 Q1021 NOSIG
Conditions at: LFST (STRASBOURG/ENTZH, FR) observed 0900 UTC 04 July 2020
Temperature: 23.0°C (73°F)
Dewpoint: 14.0°C (57°F) [RH = 57%]
Pressure (altimeter): 30.15 inches Hg (1021.0 mb)
Winds: from the SSW (200 degrees) at 6 MPH (5 knots; 2.6 m/s)
Visibility: 6 or more miles (10+ km)
Ceiling: at least 12,000 feet AGL
Clouds: few clouds at 4700 feet AGL
Weather: no significant weather observed at this time

Forecast for: LFST (STRASBOURG/ENTZH, FR)
Text: TAF LFST 040500Z 0406/0506 VRB03KT CAVOK
Forecast period: 0600 to 0900 UTC 04 July 2020
Forecast type: FROM: standard forecast or significant change
Winds: variable direction winds at 3 MPH (3 knots; 1.5 m/s)
Visibility: 6 or more miles 10+ km)
Ceiling: unknown
Clouds: missing
Weather: NSW  (no significant weather)
Text: BECMG 0409/0411 24010KT
Forecast period: 0900 UTC 04 July 2020 to 0600 UTC 05 July 2020
Forecast type: BECOMING: Conditions expected to become as follows by 1100 UTC 04 July 2020
Winds: from the WSW (240 degrees) at 12 MPH (10 knots; 5.1 m/s)
Visibility: 6 or more miles 10+ km)
Ceiling: unknown
Clouds: missing
Weather: NSW  (no significant weather)